Time;durP1;ratioP1;P1;durP2;ratioP2;P2;SDS_P1;SDS_P2;PMS_P1;PMS_P2;Temp;Humidity;BMP_temperature;BMP_pressure;BME280_temperature;BME280_humidity;BME280_pressure;Samples;Min_cycle;Max_cycle;Signal;HPM_P1;HPM_P2
2024/01/25 00:01:09;;;;;;;9.88;2.50;;;12.40;61.70;13.80;102549.00;;;;4994861;28;20225;-75
2024/01/25 00:03:36;;;;;;;11.05;2.38;;;12.40;61.70;13.80;102558.00;;;;4995718;28;20198;-75
2024/01/25 00:06:07;;;;;;;14.10;3.13;;;12.40;61.80;13.70;102554.00;;;;4996379;28;20210;-75
2024/01/25 00:08:34;;;;;;;9.45;2.17;;;12.30;61.70;13.70;102552.00;;;;4994982;28;20244;-75
2024/01/25 00:11:02;;;;;;;11.18;2.90;;;12.30;61.70;13.70;102552.00;;;;4995501;28;20296;-75
2024/01/25 00:13:30;;;;;;;14.02;2.45;;;12.20;61.70;13.70;102552.00;;;;4995319;28;20555;-75
2024/01/25 00:15:57;;;;;;;13.15;2.90;;;12.20;61.80;13.60;102552.00;;;;4995483;28;20194;-75
2024/01/25 00:18:24;;;;;;;8.85;2.38;;;12.20;61.80;13.60;102555.00;;;;4992881;28;20198;-75
2024/01/25 00:20:51;;;;;;;13.40;2.90;;;12.10;61.80;13.50;102542.00;;;;4995541;28;20216;-75
2024/01/25 00:23:19;;;;;;;15.20;3.08;;;12.10;61.80;13.50;102554.00;;;;4995094;28;20626;-75
2024/01/25 00:25:46;;;;;;;14.43;2.65;;;12.10;61.90;13.50;102553.00;;;;4995000;28;20202;-75
2024/01/25 00:28:14;;;;;;;11.90;2.95;;;12.00;61.90;13.40;102550.00;;;;4995058;28;20221;-75
2024/01/25 00:30:41;;;;;;;12.73;2.20;;;12.00;62.00;13.40;102552.00;;;;4994975;28;20280;-76
2024/01/25 00:33:08;;;;;;;11.93;2.40;;;12.00;62.00;13.40;102556.00;;;;4995004;28;20221;-76
2024/01/25 00:35:36;;;;;;;13.40;2.17;;;11.90;62.00;13.40;102554.00;;;;4994130;28;20664;-76
2024/01/25 00:38:04;;;;;;;12.93;2.40;;;11.90;62.00;13.30;102561.00;;;;4994817;28;20651;-76
2024/01/25 00:40:33;;;;;;;13.90;2.40;;;11.80;62.00;13.30;102555.00;;;;4998888;28;20215;-76
2024/01/25 00:43:00;;;;;;;10.95;2.25;;;11.80;62.10;13.30;102552.00;;;;5013638;28;20207;-76
2024/01/25 00:45:28;;;;;;;10.73;2.13;;;11.80;62.10;13.20;102567.00;;;;5014317;28;20541;-76
2024/01/25 00:47:56;;;;;;;13.23;2.17;;;11.70;62.10;13.20;102557.00;;;;5005739;28;20737;-76
2024/01/25 00:50:25;;;;;;;18.38;2.45;;;11.70;62.10;13.20;102564.00;;;;4994565;28;20208;-76
2024/01/25 00:52:53;;;;;;;11.05;2.75;;;11.60;62.10;13.20;102568.00;;;;4988161;28;20198;-76
2024/01/25 00:55:21;;;;;;;6.22;2.25;;;11.60;62.20;13.10;102575.00;;;;4984039;28;20656;-76
2024/01/25 00:57:52;;;;;;;11.05;2.03;;;11.50;62.20;13.10;102573.00;;;;4983581;28;20205;-76
2024/01/25 01:00:21;;;;;;;13.63;2.20;;;11.50;62.20;13.00;102570.00;;;;4993997;28;20198;-76
2024/01/25 01:02:49;;;;;;;14.48;2.40;;;11.50;62.20;13.00;102571.00;;;;4994710;28;20206;-76
2024/01/25 01:05:17;;;;;;;16.67;2.95;;;11.40;62.20;12.90;102570.00;;;;4997449;28;20205;-76
2024/01/25 01:07:45;;;;;;;6.65;1.60;;;11.40;62.20;12.90;102572.00;;;;4994234;28;20224;-76
2024/01/25 01:10:14;;;;;;;7.72;1.90;;;11.30;62.20;12.90;102584.00;;;;4993968;28;20682;-76
2024/01/25 01:12:41;;;;;;;10.43;2.45;;;11.30;62.30;12.80;102574.00;;;;4994225;28;20225;-76
2024/01/25 01:15:10;;;;;;;10.32;2.83;;;11.20;62.30;12.80;102594.00;;;;4995388;28;20212;-76
2024/01/25 01:17:37;;;;;;;8.73;2.47;;;11.10;62.30;12.80;102592.00;;;;4994150;28;20194;-76
2024/01/25 01:20:05;;;;;;;10.38;2.25;;;11.10;62.40;12.70;102590.00;;;;4993961;28;20320;-76
2024/01/25 01:22:32;;;;;;;13.88;2.03;;;11.10;62.50;12.70;102589.00;;;;4994381;28;20570;-76
2024/01/25 01:24:59;;;;;;;8.88;1.88;;;11.00;62.50;12.60;102596.00;;;;4974799;28;20194;-76
2024/01/25 01:27:26;;;;;;;7.93;1.67;;;11.00;62.60;12.60;102598.00;;;;4985990;28;20225;-76
2024/01/25 01:29:53;;;;;;;12.60;1.95;;;10.90;62.50;12.60;102608.00;;;;4993854;28;20194;-76
2024/01/25 01:32:21;;;;;;;11.18;1.63;;;10.90;62.50;12.50;102608.00;;;;4994450;28;20201;-76
2024/01/25 01:34:48;;;;;;;10.93;2.40;;;10.80;62.60;12.40;102605.00;;;;4993370;28;20202;-76
2024/01/25 01:37:15;;;;;;;8.40;2.17;;;10.80;62.70;12.40;102609.00;;;;4993760;28;20575;-76
2024/01/25 01:39:42;;;;;;;12.45;1.80;;;10.70;62.70;12.40;102614.00;;;;4993583;28;20666;-76
2024/01/25 01:42:09;;;;;;;7.13;1.98;;;10.70;62.70;12.40;102600.00;;;;4994304;28;20197;-76
2024/01/25 01:44:36;;;;;;;8.45;2.38;;;10.70;62.80;12.30;102601.00;;;;4993157;28;20292;-76
2024/01/25 01:47:04;;;;;;;12.60;2.25;;;10.60;62.80;12.30;102612.00;;;;4993712;28;20237;-76
2024/01/25 01:49:33;;;;;;;10.82;2.72;;;10.60;62.90;12.20;102616.00;;;;4993974;28;20204;-76
2024/01/25 01:52:00;;;;;;;7.97;1.98;;;10.60;62.90;12.20;102617.00;;;;4993783;28;20201;-76
2024/01/25 01:54:27;;;;;;;14.82;2.55;;;10.50;62.90;12.10;102617.00;;;;4993142;28;20663;-76
2024/01/25 01:56:55;;;;;;;11.32;1.90;;;10.40;63.00;12.10;102613.00;;;;4994041;28;20216;-76
2024/01/25 01:59:25;;;;;;;6.25;1.80;;;10.40;63.00;12.10;102603.00;;;;4993448;28;20193;-76
2024/01/25 02:01:52;;;;;;;17.17;2.70;;;10.30;63.00;12.00;102616.00;;;;4992923;28;20241;-76
2024/01/25 02:04:19;;;;;;;7.75;2.00;;;10.30;63.10;12.00;102617.00;;;;4993329;28;20660;-76
2024/01/25 02:06:48;;;;;;;7.40;1.80;;;10.30;63.20;11.90;102628.00;;;;4993936;28;20312;-76
2024/01/25 02:09:15;;;;;;;6.68;1.60;;;10.20;63.20;11.90;102614.00;;;;4993578;28;20289;-76
2024/01/25 02:11:42;;;;;;;6.22;1.80;;;10.20;63.90;11.90;102623.00;;;;4993516;28;20205;-76
2024/01/25 02:14:11;;;;;;;9.65;2.17;;;10.10;63.20;11.80;102640.00;;;;4993326;28;20200;-76
2024/01/25 02:16:38;;;;;;;9.65;2.00;;;10.10;63.40;11.80;102639.00;;;;4992857;28;20236;-76
2024/01/25 02:19:06;;;;;;;10.73;1.75;;;10.10;63.50;11.70;102635.00;;;;4992412;28;20205;-76
2024/01/25 02:21:33;;;;;;;9.68;1.95;;;10.00;63.50;11.70;102642.00;;;;4992333;28;20220;-76
2024/01/25 02:24:01;;;;;;;7.93;1.85;;;10.00;63.50;11.70;102647.00;;;;5009880;28;20201;-76
2024/01/25 02:26:28;;;;;;;10.13;2.20;;;10.00;63.60;11.70;102651.00;;;;5012467;28;20694;-76
2024/01/25 02:28:55;;;;;;;11.25;2.10;;;9.90;63.70;11.60;102646.00;;;;5012759;28;20236;-76
2024/01/25 02:31:22;;;;;;;8.00;2.25;;;9.90;63.70;11.60;102662.00;;;;5012604;28;20208;-76
2024/01/25 02:33:49;;;;;;;9.52;1.70;;;9.90;63.60;11.60;102667.00;;;;5011422;28;20584;-76
2024/01/25 02:36:16;;;;;;;6.30;1.58;;;9.80;63.60;11.50;102665.00;;;;4991419;28;20671;-76
2024/01/25 02:38:43;;;;;;;6.43;1.70;;;9.80;63.60;11.50;102663.00;;;;4993041;28;20666;-76
2024/01/25 02:41:11;;;;;;;6.15;1.50;;;9.80;63.60;11.50;102659.00;;;;5010874;28;20288;-76
2024/01/25 02:43:38;;;;;;;7.38;1.90;;;9.70;63.60;11.50;102660.00;;;;5012508;28;20557;-76
2024/01/25 02:46:05;;;;;;;9.35;1.80;;;9.70;63.50;11.40;102652.00;;;;4995804;28;20679;-76
2024/01/25 02:48:33;;;;;;;8.70;1.15;;;9.70;63.50;11.40;102645.00;;;;4992649;28;20271;-76
2024/01/25 02:51:00;;;;;;;10.20;2.08;;;9.60;63.50;11.30;102652.00;;;;4991501;28;20652;-77
2024/01/25 02:53:27;;;;;;;8.25;1.92;;;9.60;63.50;11.30;102659.00;;;;4980660;28;20205;-76
2024/01/25 02:55:54;;;;;;;6.45;1.33;;;9.60;63.40;11.30;102656.00;;;;4992829;28;20197;-77
2024/01/25 02:58:22;;;;;;;12.82;2.00;;;9.50;63.40;11.20;102647.00;;;;4993921;28;20202;-76
2024/01/25 03:00:49;;;;;;;12.23;2.40;;;9.50;63.50;11.20;102648.00;;;;4991840;28;20229;-76
2024/01/25 03:03:17;;;;;;;9.52;1.95;;;9.40;63.50;11.10;102653.00;;;;4991653;28;20722;-76
2024/01/25 03:05:44;;;;;;;10.93;2.67;;;9.40;63.50;11.10;102648.00;;;;4992264;28;20212;-76
2024/01/25 03:08:11;;;;;;;16.83;2.30;;;9.30;63.50;11.10;102651.00;;;;4992883;28;20231;-76
2024/01/25 03:10:38;;;;;;;8.00;1.85;;;9.30;63.60;11.00;102656.00;;;;4993057;28;20197;-77
2024/01/25 03:13:05;;;;;;;7.47;1.48;;;9.20;63.50;11.00;102656.00;;;;4992801;28;20669;-77
2024/01/25 03:15:34;;;;;;;8.13;2.17;;;9.20;63.60;10.90;102655.00;;;;4994987;28;20651;-77
2024/01/25 03:18:01;;;;;;;10.15;1.75;;;9.20;63.60;10.90;102663.00;;;;4992495;28;20209;-76
2024/01/25 03:20:28;;;;;;;7.20;1.45;;;9.10;63.50;10.90;102657.00;;;;4992645;28;20209;-76
2024/01/25 03:22:55;;;;;;;5.88;2.55;;;9.10;63.60;10.80;102660.00;;;;4992300;28;20190;-76
2024/01/25 03:25:22;;;;;;;6.80;1.67;;;9.00;63.60;10.80;102659.00;;;;4989679;28;20253;-76
2024/01/25 03:27:49;;;;;;;6.30;1.52;;;9.00;63.70;10.70;102658.00;;;;4992306;28;20230;-76
2024/01/25 03:30:16;;;;;;;6.28;1.73;;;9.00;63.70;10.70;102661.00;;;;4992691;28;20205;-76
2024/01/25 03:32:47;;;;;;;9.27;1.95;;;8.90;63.60;10.60;102668.00;;;;4991737;28;20229;-76
2024/01/25 03:35:14;;;;;;;9.07;1.40;;;8.90;63.70;10.70;102662.00;;;;4992237;28;20548;-76
2024/01/25 03:37:41;;;;;;;7.95;2.42;;;8.80;63.60;10.60;102657.00;;;;4992361;28;20197;-76
2024/01/25 03:40:10;;;;;;;6.30;1.33;;;8.80;63.70;10.60;102658.00;;;;4991591;28;20202;-76
2024/01/25 03:42:37;;;;;;;9.55;2.55;;;8.80;63.70;10.50;102662.00;;;;4987811;28;20206;-76
2024/01/25 03:45:05;;;;;;;7.45;1.85;;;8.70;63.70;10.50;102659.00;;;;4972669;28;20285;-76
2024/01/25 03:47:32;;;;;;;7.32;1.90;;;8.70;63.80;10.50;102657.00;;;;4978575;28;20313;-76
2024/01/25 03:50:01;;;;;;;4.32;1.50;;;8.70;63.80;10.40;102650.00;;;;4991909;28;20194;-76
2024/01/25 03:52:30;;;;;;;6.85;2.05;;;8.60;63.70;10.40;102651.00;;;;4992316;28;20585;-76
2024/01/25 03:54:57;;;;;;;8.88;1.75;;;8.60;64.40;10.30;102656.00;;;;4991791;28;20193;-76
2024/01/25 03:57:24;;;;;;;9.07;1.65;;;8.60;63.80;10.30;102652.00;;;;4990637;28;20286;-76
2024/01/25 03:59:51;;;;;;;8.93;2.13;;;8.50;63.70;10.30;102653.00;;;;4991126;28;20208;-76
2024/01/25 04:02:18;;;;;;;9.30;2.28;;;8.50;63.80;10.20;102662.00;;;;4991902;28;20233;-76
2024/01/25 04:04:45;;;;;;;6.50;1.52;;;8.40;63.80;10.20;102663.00;;;;4992592;28;20241;-76
2024/01/25 04:07:13;;;;;;;4.45;1.60;;;8.40;63.80;10.20;102667.00;;;;4991921;28;20598;-76
2024/01/25 04:09:41;;;;;;;6.75;1.45;;;8.30;63.70;10.10;102669.00;;;;4991541;28;20208;-76
2024/01/25 04:12:08;;;;;;;10.32;2.63;;;8.30;63.70;10.10;102665.00;;;;4991624;28;20210;-77
2024/01/25 04:14:35;;;;;;;6.45;1.55;;;8.30;63.70;10.10;102653.00;;;;4991677;28;20209;-76
2024/01/25 04:17:02;;;;;;;6.47;1.65;;;8.20;63.70;10.00;102662.00;;;;4993799;28;20279;-76
2024/01/25 04:19:29;;;;;;;6.03;1.38;;;8.20;63.70;10.00;102658.00;;;;4995108;28;20223;-76
2024/01/25 04:21:56;;;;;;;8.63;1.75;;;8.10;63.70;10.00;102650.00;;;;4995074;28;20208;-76
2024/01/25 04:24:24;;;;;;;7.80;1.55;;;8.10;63.70;9.90;102633.00;;;;4994999;28;20202;-76
2024/01/25 04:26:51;;;;;;;8.20;1.70;;;8.10;63.70;9.90;102643.00;;;;4993817;28;20198;-76
2024/01/25 04:29:18;;;;;;;5.72;1.55;;;8.00;63.70;9.90;102647.00;;;;4994231;28;20602;-76
2024/01/25 04:31:48;;;;;;;6.15;2.15;;;8.00;63.80;9.80;102650.00;;;;4980690;28;20212;-76
2024/01/25 04:34:16;;;;;;;9.90;2.40;;;8.00;63.70;9.80;102651.00;;;;4997574;28;20216;-76
2024/01/25 04:36:44;;;;;;;7.45;2.47;;;7.90;63.70;9.70;102658.00;;;;4995237;28;20200;-76
2024/01/25 04:39:11;;;;;;;7.93;2.03;;;7.90;63.80;9.70;102659.00;;;;4995228;28;20200;-76
2024/01/25 04:41:39;;;;;;;5.82;0.98;;;7.90;63.90;9.70;102664.00;;;;4994621;28;20685;-74
2024/01/25 04:44:06;;;;;;;7.88;1.45;;;7.80;63.90;9.70;102667.00;;;;4995614;28;20197;-76
2024/01/25 04:46:36;;;;;;;5.07;1.33;;;7.80;64.00;9.60;102669.00;;;;4994181;28;20219;-76
2024/01/25 04:49:03;;;;;;;3.53;1.20;;;7.80;64.00;9.60;102670.00;;;;4994632;28;20702;-76
2024/01/25 04:51:30;;;;;;;6.18;2.08;;;7.70;64.00;9.60;102676.00;;;;4994139;28;20208;-76
2024/01/25 04:53:57;;;;;;;6.43;1.17;;;7.70;64.00;9.50;102672.00;;;;4994629;28;20577;-76
2024/01/25 04:56:24;;;;;;;5.47;1.92;;;7.70;64.00;9.50;102669.00;;;;5006041;28;20666;-76
2024/01/25 04:58:53;;;;;;;9.40;1.65;;;7.60;64.00;9.50;102658.00;;;;5014291;28;20263;-76
2024/01/25 05:01:20;;;;;;;6.50;1.42;;;7.60;64.00;9.50;102663.00;;;;5014098;28;20224;-76
2024/01/25 05:03:47;;;;;;;10.23;2.00;;;7.60;64.10;9.40;102658.00;;;;5001613;28;20193;-76
2024/01/25 05:06:14;;;;;;;5.28;1.20;;;7.60;64.10;9.40;102666.00;;;;4994073;28;20198;-76
2024/01/25 05:08:43;;;;;;;6.40;1.42;;;7.50;64.10;9.40;102670.00;;;;4993791;28;20229;-76
2024/01/25 05:11:11;;;;;;;6.10;1.92;;;7.50;64.10;9.30;102673.00;;;;4994570;28;20201;-76
2024/01/25 05:13:38;;;;;;;5.03;1.95;;;7.50;64.10;9.30;102672.00;;;;4995165;28;20643;-76
2024/01/25 05:16:07;;;;;;;5.78;1.67;;;7.50;64.10;9.30;102670.00;;;;4993941;28;20197;-76
2024/01/25 05:18:34;;;;;;;4.47;1.63;;;7.40;64.00;9.30;102668.00;;;;4994521;28;20189;-76
2024/01/25 05:21:01;;;;;;;6.63;1.27;;;7.40;64.10;9.20;102673.00;;;;4994401;28;20288;-76
2024/01/25 05:23:28;;;;;;;2.40;1.35;;;7.40;64.00;9.20;102677.00;;;;4994191;28;20614;-76
2024/01/25 05:25:55;;;;;;;6.07;1.30;;;7.40;64.00;9.20;102673.00;;;;4993549;28;20296;-76
2024/01/25 05:28:24;;;;;;;8.18;1.42;;;7.30;64.10;9.20;102662.00;;;;4993211;28;20225;-76
2024/01/25 05:30:51;;;;;;;5.88;1.45;;;7.30;64.20;9.20;102668.00;;;;4995005;28;20240;-76
2024/01/25 05:33:19;;;;;;;7.50;1.65;;;7.30;64.20;9.10;102681.00;;;;4994127;28;20308;-76
2024/01/25 05:35:46;;;;;;;5.45;1.75;;;7.30;64.30;9.10;102684.00;;;;4992915;28;20296;-76
2024/01/25 05:38:13;;;;;;;9.20;2.15;;;7.30;64.40;9.10;102696.00;;;;4992784;28;20669;-76
2024/01/25 05:40:42;;;;;;;6.57;2.17;;;7.20;64.30;9.10;102695.00;;;;4994191;28;20201;-76
2024/01/25 05:43:09;;;;;;;8.05;2.13;;;7.20;64.20;9.10;102688.00;;;;4993164;28;20205;-76
2024/01/25 05:45:36;;;;;;;7.15;1.60;;;7.20;64.30;9.10;102683.00;;;;4993704;28;20212;-76
2024/01/25 05:48:04;;;;;;;7.80;1.73;;;7.20;64.30;9.00;102685.00;;;;4994306;28;20228;-76
2024/01/25 05:50:33;;;;;;;5.95;1.02;;;7.20;64.30;9.00;102681.00;;;;4993670;28;20201;-76
2024/01/25 05:53:00;;;;;;;4.78;1.25;;;7.10;64.30;9.00;102680.00;;;;4993540;28;20201;-76
2024/01/25 05:55:27;;;;;;;5.22;1.30;;;7.10;64.40;9.00;102689.00;;;;4993674;28;20678;-76
2024/01/25 05:57:54;;;;;;;5.47;1.35;;;7.10;65.10;9.00;102689.00;;;;4992950;28;20224;-76
2024/01/25 06:00:21;;;;;;;8.32;1.55;;;7.10;64.50;9.00;102691.00;;;;4992282;28;20208;-76
2024/01/25 06:02:48;;;;;;;8.45;1.67;;;7.10;64.60;9.00;102692.00;;;;4992739;28;20265;-76
2024/01/25 06:05:15;;;;;;;5.30;2.03;;;7.10;64.70;9.00;102682.00;;;;5011512;28;20207;-76
2024/01/25 06:07:43;;;;;;;6.38;1.60;;;7.10;65.40;9.00;102683.00;;;;5012723;28;20197;-76
2024/01/25 06:10:11;;;;;;;4.80;1.42;;;7.10;64.70;9.00;102691.00;;;;5013130;28;20192;-76
2024/01/25 06:12:38;;;;;;;7.00;2.15;;;7.10;64.60;9.00;102686.00;;;;4998334;28;20208;-76
2024/01/25 06:15:08;;;;;;;7.63;2.10;;;7.10;64.60;8.90;102693.00;;;;4992297;28;20202;-76
2024/01/25 06:17:35;;;;;;;5.35;1.85;;;7.10;64.60;8.90;102685.00;;;;4992319;28;20202;-76
2024/01/25 06:20:02;;;;;;;4.65;1.70;;;7.10;64.70;8.90;102692.00;;;;4993420;28;20202;-76
2024/01/25 06:22:29;;;;;;;3.63;1.60;;;7.10;64.70;8.90;102693.00;;;;4992537;28;20594;-76
2024/01/25 06:24:57;;;;;;;4.10;1.30;;;7.00;64.80;8.90;102706.00;;;;4992852;28;20203;-76
2024/01/25 06:27:24;;;;;;;8.98;2.03;;;7.10;64.80;8.90;102715.00;;;;4992958;28;20224;-76
2024/01/25 06:29:51;;;;;;;4.20;1.60;;;7.10;64.80;8.90;102709.00;;;;4991373;28;20233;-76
2024/01/25 06:32:18;;;;;;;4.88;1.88;;;7.00;64.80;8.90;102703.00;;;;4990250;28;20655;-76
2024/01/25 06:34:45;;;;;;;7.13;1.98;;;7.00;64.90;8.90;102702.00;;;;4973276;28;20199;-76
2024/01/25 06:37:15;;;;;;;11.75;2.45;;;7.00;64.90;8.90;102700.00;;;;4977404;28;20217;-76
2024/01/25 06:39:42;;;;;;;8.77;2.03;;;7.00;65.00;8.90;102700.00;;;;4991530;28;20205;-76
2024/01/25 06:42:10;;;;;;;8.57;2.50;;;7.10;65.10;8.90;102706.00;;;;4974912;28;20206;-76
2024/01/25 06:44:37;;;;;;;5.30;1.85;;;7.10;65.10;8.90;102709.00;;;;4992613;28;20228;-75
2024/01/25 06:47:05;;;;;;;8.55;2.20;;;7.10;65.10;8.90;102714.00;;;;4994158;28;20217;-75
2024/01/25 06:49:32;;;;;;;4.70;1.60;;;7.10;65.10;8.90;102707.00;;;;4992124;28;20233;-76
2024/01/25 06:51:59;;;;;;;4.40;1.63;;;7.10;65.20;8.90;102699.00;;;;4991155;28;20212;-75
2024/01/25 06:54:26;;;;;;;7.32;2.50;;;7.10;65.20;8.90;102697.00;;;;4991694;28;20193;-76
2024/01/25 06:56:56;;;;;;;8.85;2.88;;;7.10;65.20;8.90;102701.00;;;;4992377;28;20201;-76
2024/01/25 06:59:24;;;;;;;6.40;2.70;;;7.10;65.10;8.90;102714.00;;;;4985833;28;20201;-75
2024/01/25 07:01:51;;;;;;;8.13;2.50;;;7.00;65.00;8.90;102714.00;;;;4986734;28;20733;-76
2024/01/25 07:04:18;;;;;;;7.57;2.20;;;7.10;65.00;9.00;102716.00;;;;4986392;28;20197;-76
2024/01/25 07:06:45;;;;;;;7.30;2.38;;;7.00;65.00;9.00;102727.00;;;;4983301;28;20260;-76
2024/01/25 07:09:12;;;;;;;8.10;2.58;;;7.10;65.10;9.00;102717.00;;;;4989168;28;20217;-76
2024/01/25 07:11:39;;;;;;;13.18;2.50;;;7.10;65.20;9.00;102708.00;;;;4997558;28;20205;-76
2024/01/25 07:14:07;;;;;;;10.15;2.53;;;7.10;65.20;9.00;102706.00;;;;4994574;28;20292;-76
2024/01/25 07:16:36;;;;;;;9.18;2.55;;;7.10;65.30;9.00;102699.00;;;;4992228;28;20207;-76
2024/01/25 07:19:03;;;;;;;6.15;2.33;;;7.10;65.30;9.00;102712.00;;;;4988950;28;20202;-76
2024/01/25 07:21:32;;;;;;;8.90;3.28;;;7.10;65.30;9.00;102716.00;;;;4992175;28;20316;-76
2024/01/25 07:24:03;;;;;;;10.15;2.55;;;7.10;65.30;9.00;102739.00;;;;4991615;28;20213;-76
2024/01/25 07:26:31;;;;;;;8.60;2.65;;;7.10;65.40;9.10;102723.00;;;;4992085;28;20197;-76
2024/01/25 07:28:59;;;;;;;7.25;2.38;;;7.10;65.50;9.10;102720.00;;;;4992796;28;20248;-76
2024/01/25 07:31:27;;;;;;;8.88;3.40;;;7.10;65.50;9.10;102714.00;;;;4991589;28;20581;-76
2024/01/25 07:33:55;;;;;;;9.68;2.33;;;7.20;65.60;9.10;102705.00;;;;4990940;28;20252;-76
2024/01/25 07:36:23;;;;;;;8.75;2.33;;;7.20;65.60;9.20;102707.00;;;;4995325;28;20189;-76
2024/01/25 07:38:50;;;;;;;4.65;2.10;;;7.20;65.60;9.20;102705.00;;;;4997516;28;20201;-76
2024/01/25 07:41:17;;;;;;;8.68;2.97;;;7.20;65.60;9.20;102709.00;;;;4988217;28;20208;-76
2024/01/25 07:43:44;;;;;;;8.98;2.60;;;7.30;65.60;9.30;102717.00;;;;4989489;28;20197;-76
2024/01/25 07:46:14;;;;;;;5.38;2.40;;;7.20;65.60;9.30;102717.00;;;;4991368;28;20622;-76
2024/01/25 07:48:41;;;;;;;7.22;2.97;;;7.30;65.70;9.30;102717.00;;;;4991796;28;20221;-76
2024/01/25 07:51:14;;;;;;;6.35;2.50;;;7.30;65.80;9.30;102710.00;;;;4992431;28;20563;-76
2024/01/25 07:53:41;;;;;;;5.90;2.13;;;7.40;65.90;9.40;102706.00;;;;4994722;28;20197;-76
2024/01/25 07:56:10;;;;;;;9.07;2.35;;;7.30;65.80;9.40;102690.00;;;;4993087;28;20237;-77
2024/01/25 07:58:38;;;;;;;9.13;2.20;;;7.40;65.80;9.40;102697.00;;;;4993849;28;20212;-76
2024/01/25 08:01:06;;;;;;;7.90;3.40;;;7.40;65.70;9.50;102712.00;;;;4994561;28;20316;-76
2024/01/25 08:03:33;;;;;;;6.45;2.53;;;7.40;65.60;9.50;102705.00;;;;4996401;28;20220;-76
2024/01/25 08:06:01;;;;;;;5.38;2.25;;;7.50;65.70;9.50;102713.00;;;;4995328;28;20280;-76
2024/01/25 08:08:29;;;;;;;6.82;2.58;;;7.50;65.70;9.60;102722.00;;;;4994288;28;20650;-76
2024/01/25 08:10:56;;;;;;;5.95;2.85;;;7.50;65.70;9.60;102724.00;;;;4994731;28;20212;-76
2024/01/25 08:13:23;;;;;;;10.95;3.00;;;7.60;65.80;9.60;102718.00;;;;4998682;28;20668;-76
2024/01/25 08:15:52;;;;;;;8.45;2.80;;;7.60;65.80;9.60;102717.00;;;;5003698;28;20304;-76
2024/01/25 08:18:22;;;;;;;7.85;3.05;;;7.60;65.70;9.70;102712.00;;;;5014705;28;20212;-76
2024/01/25 08:20:50;;;;;;;8.13;2.75;;;7.60;65.70;9.70;102709.00;;;;4998368;28;20627;-77
2024/01/25 08:23:18;;;;;;;8.70;2.78;;;7.70;65.70;9.70;102718.00;;;;4994292;28;20198;-77
2024/01/25 08:25:47;;;;;;;6.47;2.15;;;7.70;65.70;9.70;102740.00;;;;4993873;28;20205;-76
2024/01/25 08:28:14;;;;;;;7.97;2.50;;;7.70;65.60;9.80;102741.00;;;;4990126;28;20201;-76
2024/01/25 08:30:41;;;;;;;10.93;3.42;;;7.70;65.60;9.80;102737.00;;;;4999361;28;20221;-77
2024/01/25 08:33:08;;;;;;;5.68;2.30;;;7.70;65.70;9.80;102740.00;;;;4995592;28;20221;-76
2024/01/25 08:35:35;;;;;;;4.40;2.03;;;7.80;65.80;9.90;102739.00;;;;4992955;28;20289;-76
2024/01/25 08:38:02;;;;;;;9.35;2.40;;;7.80;65.90;9.90;102731.00;;;;4991194;28;20198;-77
2024/01/25 08:40:30;;;;;;;5.32;2.45;;;7.90;66.00;10.00;102720.00;;;;4985242;28;20457;-77
2024/01/25 08:42:58;;;;;;;7.18;2.72;;;7.90;65.90;10.00;102717.00;;;;4990131;28;20667;-77
2024/01/25 08:45:25;;;;;;;8.60;2.08;;;7.90;65.90;10.00;102715.00;;;;4990078;28;20206;-77
2024/01/25 08:47:52;;;;;;;9.02;3.00;;;8.00;66.00;10.10;102726.00;;;;4988011;28;20282;-77
2024/01/25 08:50:19;;;;;;;11.15;2.60;;;8.00;66.00;10.10;102730.00;;;;4990960;28;20221;-76
2024/01/25 08:52:46;;;;;;;6.75;2.30;;;8.00;66.00;10.20;102729.00;;;;4990129;28;20281;-76
2024/01/25 08:55:13;;;;;;;6.32;2.10;;;8.10;66.80;10.20;102733.00;;;;5002634;28;20568;-76
2024/01/25 08:57:41;;;;;;;7.15;3.00;;;8.10;66.20;10.20;102737.00;;;;4992764;28;20624;-76
2024/01/25 09:00:11;;;;;;;9.30;3.38;;;8.20;66.30;10.30;102736.00;;;;4993985;28;20189;-76
2024/01/25 09:02:39;;;;;;;10.88;2.47;;;8.20;66.30;10.40;102745.00;;;;4982676;28;20234;-76
2024/01/25 09:05:08;;;;;;;11.32;3.55;;;8.30;66.40;10.50;102756.00;;;;4990147;28;20202;-76
2024/01/25 09:07:35;;;;;;;6.43;2.38;;;8.30;66.50;10.50;102751.00;;;;4982347;28;20210;-76
2024/01/25 09:10:04;;;;;;;8.63;3.38;;;8.40;66.60;10.60;102749.00;;;;4994441;28;20221;-76
2024/01/25 09:12:31;;;;;;;8.43;2.40;;;8.50;66.70;10.60;102738.00;;;;4991278;28;20194;-76
2024/01/25 09:14:58;;;;;;;8.40;2.80;;;8.50;66.80;10.70;102747.00;;;;4993938;28;20197;-76
2024/01/25 09:17:26;;;;;;;10.48;3.05;;;8.60;66.80;10.80;102742.00;;;;4993748;28;20196;-76
2024/01/25 09:19:53;;;;;;;9.02;2.22;;;8.70;66.90;10.90;102741.00;;;;4994106;28;20327;-76
2024/01/25 09:22:21;;;;;;;8.95;2.78;;;8.80;67.00;10.90;102749.00;;;;4989392;28;20201;-76
2024/01/25 09:24:48;;;;;;;10.85;2.63;;;8.80;67.00;11.00;102747.00;;;;4982816;28;20202;-76
2024/01/25 09:27:16;;;;;;;7.40;2.58;;;8.90;67.00;11.10;102755.00;;;;4995409;28;20663;-76
2024/01/25 09:29:43;;;;;;;13.90;3.08;;;9.00;67.00;11.20;102754.00;;;;5000472;28;20227;-76
2024/01/25 09:32:11;;;;;;;9.57;3.70;;;9.10;67.10;11.20;102748.00;;;;4992900;28;20288;-76
2024/01/25 09:34:40;;;;;;;8.65;2.40;;;9.10;67.10;11.30;102744.00;;;;4993277;28;20224;-76
2024/01/25 09:37:07;;;;;;;10.85;2.67;;;9.20;67.20;11.40;102724.00;;;;4992923;28;20224;-76
2024/01/25 09:39:35;;;;;;;12.13;3.10;;;9.30;67.20;11.40;102733.00;;;;4992438;28;20586;-76
2024/01/25 09:42:03;;;;;;;12.68;3.50;;;9.30;67.70;11.50;102741.00;;;;4992891;28;20639;-76
2024/01/25 09:44:31;;;;;;;6.93;2.83;;;9.40;67.00;11.60;102745.00;;;;4993375;28;20205;-76
2024/01/25 09:46:59;;;;;;;8.48;2.47;;;9.50;67.00;11.60;102744.00;;;;4977066;28;20203;-76
2024/01/25 09:49:26;;;;;;;10.02;3.10;;;9.50;67.00;11.60;102749.00;;;;4993309;28;20225;-76
2024/01/25 09:51:57;;;;;;;10.30;3.35;;;9.60;67.00;11.70;102759.00;;;;4991724;28;20190;-75
2024/01/25 09:54:25;;;;;;;8.55;3.15;;;9.60;66.90;11.80;102751.00;;;;4992463;28;20209;-76
2024/01/25 09:56:55;;;;;;;8.18;3.30;;;9.70;66.90;11.80;102737.00;;;;4992327;28;20201;-76
2024/01/25 09:59:23;;;;;;;12.02;3.28;;;9.80;66.90;11.90;102727.00;;;;4987072;28;20216;-76
2024/01/25 10:01:50;;;;;;;15.10;3.30;;;9.80;66.90;12.00;102722.00;;;;4991542;28;20284;-76
2024/01/25 10:04:19;;;;;;;10.50;3.20;;;9.90;66.90;12.00;102707.00;;;;4989962;28;20193;-74
2024/01/25 10:06:46;;;;;;;10.23;2.83;;;9.90;66.90;12.10;102716.00;;;;4988358;28;20297;-75
2024/01/25 10:09:15;;;;;;;10.77;3.13;;;10.00;66.90;12.20;102710.00;;;;4987244;28;20197;-75
2024/01/25 10:11:42;;;;;;;11.35;3.55;;;10.10;67.00;12.20;102717.00;;;;4985630;28;20205;-75
2024/01/25 10:14:09;;;;;;;13.70;4.05;;;10.10;67.00;12.30;102715.00;;;;4990986;28;20196;-75
2024/01/25 10:16:36;;;;;;;17.48;3.92;;;10.20;67.00;12.40;102715.00;;;;4988564;28;20750;-75
2024/01/25 10:19:08;;;;;;;14.00;4.00;;;10.30;67.10;12.40;102708.00;;;;4990777;28;20612;-76
2024/01/25 10:21:37;;;;;;;11.00;4.47;;;10.30;67.00;12.50;102718.00;;;;4990447;28;20667;-75
2024/01/25 10:24:06;;;;;;;12.88;3.97;;;10.40;67.00;12.50;102727.00;;;;4989673;28;20552;-75
2024/01/25 10:26:35;;;;;;;11.48;3.45;;;10.40;66.90;12.60;102728.00;;;;4991252;28;20197;-75
2024/01/25 10:29:03;;;;;;;9.23;3.30;;;10.50;67.00;12.70;102729.00;;;;4990596;28;20198;-75
2024/01/25 10:31:32;;;;;;;12.57;3.90;;;10.60;67.10;12.80;102727.00;;;;4987343;28;20221;-75
2024/01/25 10:34:01;;;;;;;8.93;3.15;;;10.70;67.30;12.80;102722.00;;;;4980599;28;20224;-75
2024/01/25 10:36:29;;;;;;;12.38;3.42;;;10.80;67.10;12.90;102725.00;;;;4993616;28;20205;-75
2024/01/25 10:38:57;;;;;;;12.45;3.28;;;10.80;67.00;12.90;102714.00;;;;4990252;28;20205;-75
2024/01/25 10:41:26;;;;;;;11.15;3.75;;;10.90;66.90;13.00;102716.00;;;;4991141;28;20288;-75
2024/01/25 10:43:54;;;;;;;13.23;3.65;;;11.00;66.90;13.00;102717.00;;;;4991046;28;20225;-75
2024/01/25 10:46:22;;;;;;;11.05;3.58;;;11.00;66.70;13.10;102725.00;;;;4991299;28;20579;-75
2024/01/25 10:48:50;;;;;;;14.98;4.32;;;11.10;66.70;13.10;102725.00;;;;4989682;28;20196;-75
2024/01/25 10:51:19;;;;;;;12.27;3.78;;;11.10;66.70;13.20;102728.00;;;;4991381;28;20271;-75
2024/01/25 10:53:47;;;;;;;14.68;4.72;;;11.20;66.70;13.30;102717.00;;;;4990280;28;20194;-75